Time;durP1;ratioP1;P1;durP2;ratioP2;P2;SDS_P1;SDS_P2;PMS_P1;PMS_P2;Temp;Humidity;BMP_temperature;BMP_pressure;BME280_temperature;BME280_humidity;BME280_pressure;Samples;Min_cycle;Max_cycle;Signal;HPM_P1;HPM_P2
2023/11/02 00:00:57;;;;;;;;;;;;;;;13.68;64.58;99071.13;5054728;28;19947;-72
2023/11/02 00:03:42;;;;;;;;;;;;;;;13.76;63.40;99075.75;5072020;28;19920;-72
2023/11/02 00:06:18;;;;;;;;;;;;;;;13.60;63.71;99074.97;5073300;28;20298;-72
2023/11/02 00:08:52;;;;;;;;;;;;;;;13.90;63.15;99061.22;5073497;28;19936;-72
2023/11/02 00:11:36;;;;;;;;;;;;;;;14.00;63.71;99061.81;5073468;28;20424;-72
2023/11/02 00:14:01;;;;;;;;;;;;;;;14.21;62.34;99052.19;5063564;28;19924;-71
2023/11/02 00:16:27;;;;;;;;;;;;;;;13.97;62.03;99054.09;5052853;28;19919;-71
2023/11/02 00:18:52;;;;;;;;;;;;;;;13.58;62.80;99055.66;5073117;28;19919;-72
2023/11/02 00:21:22;;;;;;;;;;;;;;;13.69;62.63;99049.50;5073264;28;19966;-72
2023/11/02 00:23:48;;;;;;;;;;;;;;;13.71;64.60;99047.13;5074367;28;19943;-71
2023/11/02 00:26:18;;;;;;;;;;;;;;;13.73;65.01;99050.38;5064901;28;19939;-72
2023/11/02 00:28:43;;;;;;;;;;;;;;;13.74;64.69;99046.38;5066625;28;20318;-72
2023/11/02 00:31:09;;;;;;;;;;;;;;;13.52;64.16;99050.69;5074260;28;19913;-72
2023/11/02 00:33:34;;;;;;;;;;;;;;;13.05;65.91;99044.72;5072855;28;19917;-72
2023/11/02 00:35:59;;;;;;;;;;;;;;;13.25;65.99;99042.81;5054076;28;19917;-71
2023/11/02 00:38:28;;;;;;;;;;;;;;;13.72;64.99;99040.31;5054441;28;19971;-72
2023/11/02 00:40:55;;;;;;;;;;;;;;;13.85;63.92;99041.00;5064489;28;19912;-71
2023/11/02 00:43:22;;;;;;;;;;;;;;;13.57;64.87;99040.00;5072639;28;19921;-72
2023/11/02 00:45:47;;;;;;;;;;;;;;;13.11;66.83;99050.88;5072658;28;19920;-72
2023/11/02 00:48:15;;;;;;;;;;;;;;;12.89;67.64;99041.91;5074041;28;19913;-71
2023/11/02 00:50:41;;;;;;;;;;;;;;;12.73;68.20;99045.53;5061178;28;19912;-72
2023/11/02 00:53:06;;;;;;;;;;;;;;;12.77;68.41;99035.19;5052549;28;19916;-72
2023/11/02 00:55:35;;;;;;;;;;;;;;;12.81;68.17;99034.50;5094131;28;20493;-71
2023/11/02 00:58:11;;;;;;;;;;;;;;;13.11;67.62;99036.84;5073891;28;19917;-71
2023/11/02 01:00:58;;;;;;;;;;;;;;;13.44;65.81;99044.91;5053346;28;20323;-71
2023/11/02 01:03:26;;;;;;;;;;;;;;;13.31;65.87;99038.56;5053378;28;19927;-72
2023/11/02 01:05:51;;;;;;;;;;;;;;;13.23;66.28;99028.31;5058952;28;19956;-71
2023/11/02 01:08:23;;;;;;;;;;;;;;;13.43;66.99;99037.63;5056156;28;20430;-71
2023/11/02 01:10:48;;;;;;;;;;;;;;;13.72;65.60;99032.72;5052225;28;19923;-72
2023/11/02 01:13:17;;;;;;;;;;;;;;;13.79;64.35;99034.03;5069682;28;20292;-72
2023/11/02 01:15:42;;;;;;;;;;;;;;;13.80;63.78;99022.44;5068057;28;19955;-71
2023/11/02 01:18:11;;;;;;;;;;;;;;;13.92;63.44;99029.09;5071260;28;19990;-72
2023/11/02 01:20:39;;;;;;;;;;;;;;;14.02;63.02;99026.50;5071781;28;19934;-72
2023/11/02 01:23:05;;;;;;;;;;;;;;;13.80;63.37;99022.44;5067081;28;19964;-72
2023/11/02 01:25:31;;;;;;;;;;;;;;;13.88;64.19;99026.22;5073204;28;19919;-72
2023/11/02 01:28:01;;;;;;;;;;;;;;;13.80;64.35;99028.06;5071819;28;19913;-72
2023/11/02 01:30:36;;;;;;;;;;;;;;;13.56;65.62;99029.09;5059528;28;19916;-72
2023/11/02 01:33:04;;;;;;;;;;;;;;;13.82;64.71;99025.69;5051554;28;20327;-72
2023/11/02 01:35:37;;;;;;;;;;;;;;;13.68;64.89;99019.75;5053023;28;19919;-72
2023/11/02 01:38:03;;;;;;;;;;;;;;;13.58;65.43;99023.97;5056745;28;19966;-72
2023/11/02 01:40:35;;;;;;;;;;;;;;;13.69;65.06;99016.56;5060900;28;19920;-72
2023/11/02 01:43:02;;;;;;;;;;;;;;;13.75;63.73;99020.72;5052781;28;19917;-72
2023/11/02 01:45:29;;;;;;;;;;;;;;;13.85;64.04;99024.94;5056054;28;19917;-72
2023/11/02 01:47:57;;;;;;;;;;;;;;;13.66;64.56;99016.50;5054543;28;19960;-72
2023/11/02 01:50:23;;;;;;;;;;;;;;;13.75;64.42;99025.53;5070010;28;19924;-72
2023/11/02 01:53:03;;;;;;;;;;;;;;;13.79;64.02;99020.81;5070836;28;19916;-72
2023/11/02 01:55:47;;;;;;;;;;;;;;;13.94;63.04;99026.75;5071280;28;19912;-72
2023/11/02 01:58:19;;;;;;;;;;;;;;;13.93;62.95;99002.63;5070981;28;19917;-72
2023/11/02 02:00:44;;;;;;;;;;;;;;;13.70;64.46;99020.19;5066868;28;19924;-72
2023/11/02 02:03:14;;;;;;;;;;;;;;;13.81;62.59;99021.25;5052094;28;19921;-72
2023/11/02 02:05:49;;;;;;;;;;;;;;;13.93;63.25;99011.06;5057023;28;19923;-72
2023/11/02 02:08:34;;;;;;;;;;;;;;;13.95;62.83;99003.06;5084126;28;19966;-72
2023/11/02 02:11:23;;;;;;;;;;;;;;;14.01;62.02;98993.16;5052336;28;19912;-72
2023/11/02 02:13:48;;;;;;;;;;;;;;;13.93;62.00;98980.94;5048671;28;19912;-72
2023/11/02 02:16:20;;;;;;;;;;;;;;;13.97;62.56;98976.22;5063428;28;19923;-72
2023/11/02 02:18:51;;;;;;;;;;;;;;;14.04;62.74;98970.72;5061473;28;19947;-72
2023/11/02 02:21:30;;;;;;;;;;;;;;;14.08;62.53;98973.59;5069295;28;19948;-72
2023/11/02 02:23:59;;;;;;;;;;;;;;;13.97;62.44;98981.00;5067534;28;19921;-72
2023/11/02 02:26:45;;;;;;;;;;;;;;;13.90;63.14;98981.69;5056059;28;19920;-71
2023/11/02 02:29:22;;;;;;;;;;;;;;;13.97;63.53;98987.47;5040116;28;19966;-72
2023/11/02 02:32:07;;;;;;;;;;;;;;;13.97;64.10;98984.66;5067958;28;20055;-71
2023/11/02 02:34:41;;;;;;;;;;;;;;;13.93;64.83;98988.56;5059913;28;19917;-72
2023/11/02 02:37:14;;;;;;;;;;;;;;;13.85;65.42;98999.66;5052540;28;20429;-72
2023/11/02 02:39:40;;;;;;;;;;;;;;;13.49;66.80;98996.03;5051666;28;19917;-72
2023/11/02 02:42:07;;;;;;;;;;;;;;;13.71;66.75;98997.34;5051804;28;19916;-72
2023/11/02 02:44:34;;;;;;;;;;;;;;;13.84;66.56;98986.78;5051839;28;19971;-72
2023/11/02 02:47:01;;;;;;;;;;;;;;;13.83;67.24;98981.53;5059543;28;19923;-72
2023/11/02 02:49:30;;;;;;;;;;;;;;;13.86;67.20;98970.34;5050417;28;19917;-71
2023/11/02 02:51:56;;;;;;;;;;;;;;;13.86;67.56;98967.53;5051275;28;19951;-71
2023/11/02 02:54:22;;;;;;;;;;;;;;;13.77;67.46;98966.97;5051712;28;20011;-71
2023/11/02 02:56:48;;;;;;;;;;;;;;;13.70;67.86;98964.81;5060484;28;19951;-72
2023/11/02 02:59:17;;;;;;;;;;;;;;;13.72;68.04;98962.44;5070352;28;19923;-72
2023/11/02 03:01:44;;;;;;;;;;;;;;;13.57;68.25;98960.50;5056832;28;19970;-72
2023/11/02 03:04:14;;;;;;;;;;;;;;;13.69;68.39;98948.31;5050191;28;20391;-71
2023/11/02 03:06:43;;;;;;;;;;;;;;;13.75;68.13;98942.03;5050282;28;19916;-71
2023/11/02 03:09:10;;;;;;;;;;;;;;;13.36;68.95;98938.34;5052206;28;19917;-71
2023/11/02 03:11:35;;;;;;;;;;;;;;;12.96;70.16;98931.81;5070322;28;19950;-72
2023/11/02 03:14:03;;;;;;;;;;;;;;;12.63;71.46;98939.44;5070162;28;20288;-72
2023/11/02 03:16:34;;;;;;;;;;;;;;;12.86;71.18;98939.63;5068739;28;19923;-72
2023/11/02 03:19:00;;;;;;;;;;;;;;;13.09;70.58;98943.75;5070948;28;20011;-71
2023/11/02 03:21:25;;;;;;;;;;;;;;;13.07;69.14;98946.91;5071533;28;20429;-72
2023/11/02 03:24:11;;;;;;;;;;;;;;;12.96;69.14;98951.44;5069551;28;19921;-72
2023/11/02 03:26:44;;;;;;;;;;;;;;;12.33;70.55;98953.91;5073652;28;19913;-71
2023/11/02 03:29:10;;;;;;;;;;;;;;;12.02;71.96;98961.88;5073212;28;19939;-72
2023/11/02 03:32:02;;;;;;;;;;;;;;;12.29;70.78;98950.16;5055166;28;20390;-72
2023/11/02 03:34:31;;;;;;;;;;;;;;;11.91;70.71;98947.53;5053985;28;19963;-71
2023/11/02 03:37:16;;;;;;;;;;;;;;;11.94;71.17;98940.41;5055403;28;20382;-72
2023/11/02 03:39:44;;;;;;;;;;;;;;;12.13;69.74;98941.75;5054812;28;20412;-72
2023/11/02 03:42:15;;;;;;;;;;;;;;;12.16;69.75;98944.63;5055229;28;19916;-71
2023/11/02 03:44:43;;;;;;;;;;;;;;;12.04;69.83;98941.88;5053561;28;19917;-71
2023/11/02 03:47:27;;;;;;;;;;;;;;;11.86;70.44;98936.59;5055168;28;19983;-71
2023/11/02 03:50:18;;;;;;;;;;;;;;;11.50;72.16;98936.34;5056489;28;19931;-71
2023/11/02 03:52:53;;;;;;;;;;;;;;;11.43;72.34;98940.91;5073559;28;19916;-71
2023/11/02 03:55:21;;;;;;;;;;;;;;;11.44;72.49;98934.13;5069689;28;20408;-71
2023/11/02 03:57:46;;;;;;;;;;;;;;;11.54;72.11;98924.44;5055828;28;20329;-71
2023/11/02 04:00:14;;;;;;;;;;;;;;;11.75;71.38;98930.66;5068729;28;20012;-71
2023/11/02 04:02:44;;;;;;;;;;;;;;;11.50;71.34;98927.13;5069846;28;19921;-71
2023/11/02 04:05:15;;;;;;;;;;;;;;;11.65;71.41;98929.19;5066539;28;19916;-71
2023/11/02 04:07:44;;;;;;;;;;;;;;;11.57;70.77;98930.13;5072882;28;19913;-71
2023/11/02 04:10:11;;;;;;;;;;;;;;;10.62;74.72;98920.03;5068295;28;19963;-71
2023/11/02 04:12:37;;;;;;;;;;;;;;;10.89;74.10;98923.28;5055017;28;20366;-71
2023/11/02 04:15:03;;;;;;;;;;;;;;;11.09;73.57;98919.50;5054493;28;19948;-71
2023/11/02 04:17:29;;;;;;;;;;;;;;;10.85;75.45;98922.31;5053249;28;19912;-71
2023/11/02 04:19:55;;;;;;;;;;;;;;;10.69;76.15;98916.66;5070685;28;19916;-72
2023/11/02 04:22:20;;;;;;;;;;;;;;;10.72;76.92;98913.94;5069731;28;19928;-72
2023/11/02 04:24:46;;;;;;;;;;;;;;;10.40;77.57;98914.47;5054504;28;20322;-71
2023/11/02 04:27:11;;;;;;;;;;;;;;;10.30;78.98;98912.13;5055241;28;20391;-72
2023/11/02 04:29:37;;;;;;;;;;;;;;;10.38;78.69;98902.84;5053020;28;19912;-69
2023/11/02 04:32:02;;;;;;;;;;;;;;;10.58;78.17;98905.91;5068182;28;20489;-72
2023/11/02 04:34:27;;;;;;;;;;;;;;;10.58;78.35;98911.50;5073908;28;19919;-72
2023/11/02 04:36:53;;;;;;;;;;;;;;;10.58;78.23;98908.72;5070344;28;19975;-71
2023/11/02 04:39:19;;;;;;;;;;;;;;;10.81;78.21;98911.84;5059857;28;19917;-70
2023/11/02 04:41:44;;;;;;;;;;;;;;;10.92;77.51;98911.38;5074120;28;19971;-71
2023/11/02 04:44:09;;;;;;;;;;;;;;;10.98;78.07;98915.59;5070457;28;19929;-71
2023/11/02 04:46:35;;;;;;;;;;;;;;;11.05;77.68;98907.41;5067359;28;20429;-71
2023/11/02 04:49:00;;;;;;;;;;;;;;;11.09;77.35;98911.13;5073935;28;19912;-71
2023/11/02 04:51:30;;;;;;;;;;;;;;;10.82;78.09;98918.28;5065097;28;19928;-70
2023/11/02 04:53:56;;;;;;;;;;;;;;;10.60;79.79;98925.13;5072784;28;20390;-72
2023/11/02 04:56:22;;;;;;;;;;;;;;;10.04;81.61;98929.22;5072680;28;19992;-76
2023/11/02 04:58:47;;;;;;;;;;;;;;;10.05;82.65;98926.03;5073508;28;20016;-70
2023/11/02 05:01:12;;;;;;;;;;;;;;;9.88;83.69;98932.63;5068223;28;19917;-69
2023/11/02 05:03:38;;;;;;;;;;;;;;;9.76;85.13;98938.16;5085688;28;19921;-71
2023/11/02 05:06:03;;;;;;;;;;;;;;;9.77;84.91;98946.22;5054929;28;20383;-70
2023/11/02 05:08:28;;;;;;;;;;;;;;;9.65;85.86;98952.56;5063383;28;19917;-70
2023/11/02 05:10:54;;;;;;;;;;;;;;;9.38;88.23;98954.72;5052271;28;20002;-70
2023/11/02 05:15:50;;;;;;;;;;;;;;;9.55;86.70;98961.34;5513836;23;19936;-70
2023/11/02 05:18:16;;;;;;;;;;;;;;;9.57;87.06;98964.63;5008490;28;20395;-69
2023/11/02 05:20:41;;;;;;;;;;;;;;;9.56;87.65;98965.78;5012910;28;19920;-69
2023/11/02 05:23:09;;;;;;;;;;;;;;;9.56;87.51;98965.78;5007637;28;19987;-69
2023/11/02 05:25:34;;;;;;;;;;;;;;;9.83;85.60;98961.63;5006363;28;19917;-69
2023/11/02 05:27:59;;;;;;;;;;;;;;;9.90;84.94;98957.44;5006402;28;20045;-69
2023/11/02 05:30:25;;;;;;;;;;;;;;;10.07;84.84;98954.47;5009143;28;20339;-69
2023/11/02 05:32:50;;;;;;;;;;;;;;;10.37;82.71;98961.88;5007997;28;19922;-69
2023/11/02 05:35:16;;;;;;;;;;;;;;;10.56;82.22;98961.38;5007162;28;20038;-70
2023/11/02 05:37:41;;;;;;;;;;;;;;;10.70;81.04;98971.41;4997923;28;19929;-69
2023/11/02 05:40:07;;;;;;;;;;;;;;;10.75;80.60;98962.78;4998575;28;19924;-74
2023/11/02 05:42:32;;;;;;;;;;;;;;;10.91;80.32;98972.09;5008324;28;20367;-74
2023/11/02 05:44:58;;;;;;;;;;;;;;;10.99;79.33;98966.75;5011542;28;19917;-73
2023/11/02 05:47:23;;;;;;;;;;;;;;;10.98;79.49;98977.16;5010173;28;19917;-73
2023/11/02 05:49:48;;;;;;;;;;;;;;;11.00;79.31;98974.81;4992157;28;20438;-70
2023/11/02 05:52:14;;;;;;;;;;;;;;;11.00;79.85;98974.81;4994668;28;20438;-69
2023/11/02 05:54:39;;;;;;;;;;;;;;;11.03;79.36;98962.91;4991609;28;19913;-70
2023/11/02 05:57:04;;;;;;;;;;;;;;;11.23;78.80;98965.94;4991513;28;20376;-70
2023/11/02 05:59:30;;;;;;;;;;;;;;;11.48;77.96;98968.69;4993304;28;19988;-70
2023/11/02 06:01:55;;;;;;;;;;;;;;;11.82;76.94;98980.47;5003781;28;19953;-70
2023/11/02 06:04:21;;;;;;;;;;;;;;;12.05;76.37;98977.97;4997325;28;19922;-70
2023/11/02 06:06:46;;;;;;;;;;;;;;;12.24;75.53;98979.28;4993241;28;19937;-70
2023/11/02 06:09:12;;;;;;;;;;;;;;;12.17;75.91;98981.91;4993219;28;20347;-70
2023/11/02 06:11:38;;;;;;;;;;;;;;;11.98;77.50;98976.94;5002195;28;19968;-70
2023/11/02 06:14:03;;;;;;;;;;;;;;;11.94;78.27;98988.03;5013048;28;20315;-70
2023/11/02 06:16:29;;;;;;;;;;;;;;;12.13;78.13;98989.41;5011499;28;19922;-70
2023/11/02 06:18:54;;;;;;;;;;;;;;;12.21;78.16;98992.06;5006110;28;19925;-70
2023/11/02 06:21:19;;;;;;;;;;;;;;;12.21;78.31;98992.06;5006951;28;20407;-70
2023/11/02 06:23:45;;;;;;;;;;;;;;;12.27;78.27;98987.00;5012350;28;20338;-70
2023/11/02 06:26:10;;;;;;;;;;;;;;;12.32;77.95;98983.91;5011315;28;19917;-70
2023/11/02 06:28:35;;;;;;;;;;;;;;;12.43;77.49;98987.03;5011098;28;20071;-70
2023/11/02 06:31:00;;;;;;;;;;;;;;;12.70;76.70;98978.91;5012010;28;19921;-70
2023/11/02 06:33:27;;;;;;;;;;;;;;;12.89;76.02;98994.19;5011315;28;19917;-70
2023/11/02 06:35:52;;;;;;;;;;;;;;;12.92;75.75;99002.72;5012323;28;19921;-70
2023/11/02 06:38:21;;;;;;;;;;;;;;;13.05;75.36;99002.63;4997048;28;20064;-70
2023/11/02 06:40:46;;;;;;;;;;;;;;;13.18;75.22;98997.72;5002431;28;19924;-70
2023/11/02 06:43:13;;;;;;;;;;;;;;;13.35;74.46;98996.53;5011842;28;20346;-70
2023/11/02 06:45:38;;;;;;;;;;;;;;;13.52;73.73;98995.34;5011256;28;19924;-70
2023/11/02 06:48:03;;;;;;;;;;;;;;;13.54;73.20;98992.13;5009449;28;19913;-70
2023/11/02 06:50:28;;;;;;;;;;;;;;;13.51;73.10;98999.31;5003788;28;19918;-70
2023/11/02 06:52:55;;;;;;;;;;;;;;;13.45;73.17;99001.59;5008719;28;19921;-70
2023/11/02 06:55:20;;;;;;;;;;;;;;;13.08;73.46;98998.28;4998864;28;19941;-70
2023/11/02 06:57:45;;;;;;;;;;;;;;;13.40;72.37;98981.38;4991284;28;20319;-70
2023/11/02 07:00:11;;;;;;;;;;;;;;;13.49;71.67;98984.81;4996000;28;19917;-70
2023/11/02 07:02:37;;;;;;;;;;;;;;;13.36;71.31;98984.09;5011267;28;19918;-70
2023/11/02 07:05:03;;;;;;;;;;;;;;;13.21;70.85;98980.13;5012037;28;20016;-71
2023/11/02 07:07:28;;;;;;;;;;;;;;;13.27;71.21;98981.50;5011986;28;20377;-70
2023/11/02 07:09:54;;;;;;;;;;;;;;;13.55;70.66;98965.66;5010951;28;19921;-70
2023/11/02 07:12:19;;;;;;;;;;;;;;;13.73;68.96;98963.25;4995141;28;20311;-70
2023/11/02 07:14:46;;;;;;;;;;;;;;;13.59;68.93;98958.94;5000996;28;19918;-70
2023/11/02 07:17:12;;;;;;;;;;;;;;;13.53;69.26;98952.00;5010632;28;19917;-70
2023/11/02 07:19:37;;;;;;;;;;;;;;;13.54;69.13;98955.63;5010999;28;19920;-70
2023/11/02 07:22:02;;;;;;;;;;;;;;;13.69;68.13;98951.13;5011747;28;20406;-70
2023/11/02 07:24:27;;;;;;;;;;;;;;;13.84;66.83;98950.22;5011823;28;19913;-70
2023/11/02 07:26:53;;;;;;;;;;;;;;;13.94;65.53;98948.03;5011879;28;19956;-70
2023/11/02 07:29:18;;;;;;;;;;;;;;;13.98;64.92;98952.53;4991591;28;19918;-70
2023/11/02 07:31:45;;;;;;;;;;;;;;;14.22;64.30;98955.38;5007392;28;19924;-70
2023/11/02 07:34:10;;;;;;;;;;;;;;;14.36;62.83;98941.63;5010425;28;19914;-70
2023/11/02 07:36:35;;;;;;;;;;;;;;;14.45;63.16;98942.16;5011728;28;19913;-73
2023/11/02 07:39:01;;;;;;;;;;;;;;;14.47;63.08;98938.97;5010217;28;19913;-73
2023/11/02 07:41:26;;;;;;;;;;;;;;;14.54;62.76;98946.72;5005479;28;20005;-72
2023/11/02 07:43:52;;;;;;;;;;;;;;;14.70;62.56;98949.44;5002983;28;20064;-72
2023/11/02 07:46:17;;;;;;;;;;;;;;;14.87;61.60;98951.75;4998620;28;20449;-72
2023/11/02 07:48:42;;;;;;;;;;;;;;;14.88;61.92;98952.56;5001445;28;19957;-73
2023/11/02 07:51:08;;;;;;;;;;;;;;;14.97;63.03;98947.50;4998820;28;20051;-72
2023/11/02 07:53:33;;;;;;;;;;;;;;;15.17;62.43;98936.13;5007205;28;19952;-73
2023/11/02 07:55:58;;;;;;;;;;;;;;;15.41;62.64;98945.31;5004040;28;19925;-72
2023/11/02 07:58:24;;;;;;;;;;;;;;;15.41;62.71;98945.31;5007371;28;20307;-72
2023/11/02 08:00:49;;;;;;;;;;;;;;;15.56;62.75;98938.69;5010121;28;19917;-72
2023/11/02 08:03:14;;;;;;;;;;;;;;;15.70;62.95;98934.44;4993173;28;19989;-70
2023/11/02 08:05:40;;;;;;;;;;;;;;;15.75;65.05;98938.91;5009119;28;19954;-70
2023/11/02 08:08:05;;;;;;;;;;;;;;;15.95;65.49;98937.59;5006754;28;19983;-70
2023/11/02 08:10:30;;;;;;;;;;;;;;;16.03;65.06;98937.69;5018232;28;19925;-70
2023/11/02 08:12:56;;;;;;;;;;;;;;;15.92;66.15;98938.38;5026091;28;19996;-70
2023/11/02 08:15:21;;;;;;;;;;;;;;;16.27;66.07;98939.97;5026012;28;19925;-70
2023/11/02 08:20:55;;;;;;;;;;;;;;;16.32;66.20;98930.34;5463531;23;19951;-89
2023/11/02 08:23:21;;;;;;;;;;;;;;;16.40;66.31;98929.22;5005210;28;19921;-89
2023/11/02 08:25:46;;;;;;;;;;;;;;;16.49;65.40;98916.78;5013510;28;19924;-89
2023/11/02 08:28:12;;;;;;;;;;;;;;;16.59;64.78;98918.91;5014441;28;20308;-89
2023/11/02 08:30:37;;;;;;;;;;;;;;;16.54;65.40;98910.81;5014642;28;19913;-89
2023/11/02 08:33:02;;;;;;;;;;;;;;;16.62;65.73;98911.69;5014042;28;19936;-90
2023/11/02 08:35:27;;;;;;;;;;;;;;;16.52;66.29;98907.53;5013961;28;19922;-90
2023/11/02 08:37:53;;;;;;;;;;;;;;;16.63;65.42;98914.09;5014656;28;19981;-90
2023/11/02 08:40:20;;;;;;;;;;;;;;;16.69;65.82;98909.72;5006629;28;19914;-90
2023/11/02 08:42:46;;;;;;;;;;;;;;;16.69;66.38;98917.38;5001154;28;19972;-90
2023/11/02 08:45:13;;;;;;;;;;;;;;;16.74;65.71;98910.56;5014226;28;20379;-90
2023/11/02 08:47:38;;;;;;;;;;;;;;;16.84;65.40;98918.31;5014477;28;19914;-89
2023/11/02 08:50:04;;;;;;;;;;;;;;;17.06;64.49;98910.81;4999472;28;19918;-90
2023/11/02 08:52:30;;;;;;;;;;;;;;;17.28;64.31;98913.78;5013379;28;19925;-89
2023/11/02 08:54:55;;;;;;;;;;;;;;;17.45;63.36;98906.63;5014553;28;19918;-89
2023/11/02 08:57:22;;;;;;;;;;;;;;;17.56;62.96;98888.91;5014354;28;19914;-90
2023/11/02 08:59:48;;;;;;;;;;;;;;;17.68;62.22;98899.88;5014368;28;20281;-90
2023/11/02 09:02:13;;;;;;;;;;;;;;;17.78;62.13;98889.81;5015003;28;19913;-89
2023/11/02 09:04:38;;;;;;;;;;;;;;;17.34;63.21;98888.81;5016556;28;19920;-87
2023/11/02 09:07:04;;;;;;;;;;;;;;;17.76;62.40;98884.56;5015497;28;19920;-88
2023/11/02 09:09:30;;;;;;;;;;;;;;;17.80;62.21;98881.75;5015004;28;20303;-88
2023/11/02 09:11:55;;;;;;;;;;;;;;;18.09;61.13;98879.03;5016947;28;19913;-88
2023/11/02 09:14:21;;;;;;;;;;;;;;;18.23;61.41;98866.94;5016175;28;19924;-89
2023/11/02 09:16:46;;;;;;;;;;;;;;;18.03;62.75;98872.13;5015237;28;20001;-88
2023/11/02 09:19:11;;;;;;;;;;;;;;;17.87;63.13;98864.78;5014719;28;19918;-88
2023/11/02 09:21:37;;;;;;;;;;;;;;;18.13;62.83;98859.22;5005202;28;20008;-88
2023/11/02 09:24:04;;;;;;;;;;;;;;;18.00;63.20;98856.75;4993781;28;19949;-88
2023/11/02 09:26:29;;;;;;;;;;;;;;;18.07;62.97;98858.81;4994484;28;19921;-88
2023/11/02 09:28:54;;;;;;;;;;;;;;;18.15;62.21;98845.50;4994365;28;20323;-88
2023/11/02 09:31:22;;;;;;;;;;;;;;;18.24;61.34;98846.69;4994389;28;19920;-88
2023/11/02 09:33:47;;;;;;;;;;;;;;;18.31;60.40;98836.63;4989670;28;20342;-88
2023/11/02 09:36:12;;;;;;;;;;;;;;;18.51;60.63;98840.63;4993911;28;19918;-88
2023/11/02 09:38:38;;;;;;;;;;;;;;;18.65;59.59;98837.00;4992153;28;20017;-88
2023/11/02 09:41:03;;;;;;;;;;;;;;;18.57;60.44;98838.22;4992461;28;19925;-89
2023/11/02 09:43:29;;;;;;;;;;;;;;;17.92;61.50;98838.13;4993164;28;19929;-89
2023/11/02 09:45:56;;;;;;;;;;;;;;;18.29;61.00;98828.50;4992979;28;20090;-88
2023/11/02 09:48:22;;;;;;;;;;;;;;;18.61;60.17;98824.06;4993857;28;19921;-89
2023/11/02 09:50:47;;;;;;;;;;;;;;;18.75;59.87;98814.75;4993373;28;19918;-88
2023/11/02 09:53:13;;;;;;;;;;;;;;;18.76;59.93;98811.53;4994374;28;19920;-88
2023/11/02 09:55:40;;;;;;;;;;;;;;;18.89;59.55;98811.09;4988891;28;19918;-89
2023/11/02 09:58:06;;;;;;;;;;;;;;;18.97;58.10;98798.50;4990361;28;20439;-89
2023/11/02 10:00:32;;;;;;;;;;;;;;;18.97;57.68;98789.22;4992736;28;19922;-87
2023/11/02 10:02:57;;;;;;;;;;;;;;;18.40;59.11;98796.56;4991326;28;20285;-86
2023/11/02 10:05:24;;;;;;;;;;;;;;;18.15;60.07;98794.53;4993671;28;19914;-86
2023/11/02 10:07:50;;;;;;;;;;;;;;;18.23;60.61;98796.97;4989512;28;19944;-87
2023/11/02 10:10:15;;;;;;;;;;;;;;;18.62;58.96;98791.69;4990624;28;19968;-86
2023/11/02 10:12:41;;;;;;;;;;;;;;;18.85;58.40;98791.25;4992281;28;19921;-87
2023/11/02 10:15:07;;;;;;;;;;;;;;;18.15;59.87;98791.72;5001420;28;19914;-86
2023/11/02 10:17:36;;;;;;;;;;;;;;;18.05;60.67;98791.28;4985864;28;19917;-87
2023/11/02 10:20:11;;;;;;;;;;;;;;;18.23;60.62;98779.19;4991376;28;19918;-87
2023/11/02 10:22:37;;;;;;;;;;;;;;;18.50;59.93;98779.56;4985095;28;20434;-86
2023/11/02 10:25:03;;;;;;;;;;;;;;;18.73;59.38;98771.88;4974490;28;19980;-86
2023/11/02 10:27:29;;;;;;;;;;;;;;;18.95;57.99;98764.13;4981590;28;19940;-86
2023/11/02 10:29:54;;;;;;;;;;;;;;;18.95;58.81;98755.59;4993227;28;20380;-87
2023/11/02 10:32:21;;;;;;;;;;;;;;;18.93;58.04;98746.72;4992404;28;19949;-87
2023/11/02 10:34:46;;;;;;;;;;;;;;;19.11;57.36;98755.19;4993872;28;19921;-86
2023/11/02 10:37:12;;;;;;;;;;;;;;;19.20;57.45;98747.06;4990355;28;19921;-87
2023/11/02 10:39:37;;;;;;;;;;;;;;;19.26;57.04;98747.44;4990637;28;19922;-88
2023/11/02 10:42:06;;;;;;;;;;;;;;;19.32;57.67;98751.44;4990395;28;19914;-88
2023/11/02 10:44:32;;;;;;;;;;;;;;;19.05;57.73;98736.97;4988980;28;19924;-88
2023/11/02 10:46:58;;;;;;;;;;;;;;;18.95;58.29;98735.78;4991816;28;20004;-89
2023/11/02 10:49:27;;;;;;;;;;;;;;;19.16;57.84;98732.06;4987417;28;19917;-88
2023/11/02 10:51:53;;;;;;;;;;;;;;;19.30;58.09;98724.72;4987872;28;19922;-88
2023/11/02 10:54:25;;;;;;;;;;;;;;;19.35;58.04;98721.47;4981513;28;19914;-87
2023/11/02 10:56:58;;;;;;;;;;;;;;;19.25;58.71;98719.50;4993200;28;20621;-89
2023/11/02 10:59:24;;;;;;;;;;;;;;;19.12;58.13;98719.94;5009748;28;19925;-90
2023/11/02 11:01:50;;;;;;;;;;;;;;;19.12;58.54;98710.63;4992871;28;19918;-88
2023/11/02 11:04:16;;;;;;;;;;;;;;;19.18;58.84;98709.78;5013878;28;20303;-87
2023/11/02 11:06:44;;;;;;;;;;;;;;;19.30;57.92;98707.72;5008299;28;19922;-89
2023/11/02 11:09:11;;;;;;;;;;;;;;;18.60;58.90;98697.84;4985008;28;20496;-89
2023/11/02 11:11:39;;;;;;;;;;;;;;;18.91;58.64;98692.50;4980198;28;19946;-88
2023/11/02 11:14:04;;;;;;;;;;;;;;;19.34;57.23;98700.00;4992645;28;19914;-88
2023/11/02 11:16:30;;;;;;;;;;;;;;;19.32;58.11;98699.63;4979802;28;19945;-88
2023/11/02 11:18:56;;;;;;;;;;;;;;;19.49;58.15;98698.69;5008517;28;19947;-87
2023/11/02 11:21:23;;;;;;;;;;;;;;;19.62;56.74;98699.03;4981569;28;20313;-87
2023/11/02 11:24:11;;;;;;;;;;;;;;;19.50;57.41;98688.97;4977949;28;19967;-85
2023/11/02 11:26:54;;;;;;;;;;;;;;;19.22;58.14;98692.78;5001867;28;19924;-85
2023/11/02 11:29:39;;;;;;;;;;;;;;;19.34;58.05;98695.13;5001940;28;19918;-84
2023/11/02 11:32:05;;;;;;;;;;;;;;;19.16;57.82;98700.91;4981386;28;20388;-84
2023/11/02 11:34:51;;;;;;;;;;;;;;;18.87;59.11;98697.34;4983810;28;19922;-86
2023/11/02 11:37:37;;;;;;;;;;;;;;;18.37;61.35;98685.78;4973342;28;20005;-85
2023/11/02 11:40:08;;;;;;;;;;;;;;;18.79;60.27;98680.41;5003725;28;19920;-85
2023/11/02 11:46:08;;;;;;;;;;;;;;;19.18;59.42;98687.13;4988278;28;19937;-86
2023/11/02 11:48:30;;;;;;;;;;;;;;;19.36;59.24;98672.84;4992747;28;19974;-86
2023/11/02 11:50:56;;;;;;;;;;;;;;;19.21;58.80;98672.13;4991506;28;20355;-87
2023/11/02 11:53:23;;;;;;;;;;;;;;;19.30;59.07;98668.84;4991889;28;19914;-86
2023/11/02 11:55:50;;;;;;;;;;;;;;;19.44;58.06;98673.63;4982327;28;19917;-87
2023/11/02 11:58:15;;;;;;;;;;;;;;;19.54;57.81;98676.78;4991529;28;19922;-87
2023/11/02 12:01:19;;;;;;;;;;;;;;;19.05;58.23;98680.31;4986997;28;19924;-88
2023/11/02 12:03:45;;;;;;;;;;;;;;;19.45;57.85;98674.41;4958145;28;19919;-87
2023/11/02 12:06:21;;;;;;;;;;;;;;;19.22;57.76;98675.75;4972307;28;19918;-88
2023/11/02 12:08:48;;;;;;;;;;;;;;;18.91;58.78;98676.28;5006650;28;20292;-87
2023/11/02 12:11:14;;;;;;;;;;;;;;;19.52;57.46;98667.88;4988531;28;19937;-86
2023/11/02 12:13:44;;;;;;;;;;;;;;;20.02;55.82;98663.88;4984808;28;20292;-85
2023/11/02 12:16:12;;;;;;;;;;;;;;;20.27;54.71;98660.81;4987459;28;20254;-85
2023/11/02 12:18:58;;;;;;;;;;;;;;;20.16;54.83;98660.13;4978223;28;20335;-88
2023/11/02 12:21:24;;;;;;;;;;;;;;;19.90;55.68;98659.47;4988956;28;19996;-87
2023/11/02 12:23:58;;;;;;;;;;;;;;;19.89;56.27;98664.38;4987165;28;20013;-88
2023/11/02 12:26:27;;;;;;;;;;;;;;;20.06;54.76;98673.16;5011168;28;19925;-86
2023/11/02 12:28:58;;;;;;;;;;;;;;;20.28;54.75;98656.75;4987238;28;20324;-86
2023/11/02 12:31:29;;;;;;;;;;;;;;;20.47;53.73;98654.50;4989257;28;20323;-86
2023/11/02 12:33:55;;;;;;;;;;;;;;;20.43;53.19;98657.38;4986205;28;19919;-85
2023/11/02 12:36:21;;;;;;;;;;;;;;;20.19;54.32;98659.28;4987399;28;19924;-87
2023/11/02 12:38:51;;;;;;;;;;;;;;;20.18;54.03;98655.59;4988116;28;19922;-88
2023/11/02 12:41:35;;;;;;;;;;;;;;;20.22;54.61;98655.59;5010206;28;20403;-88
2023/11/02 12:44:45;;;;;;;;;;;;;;;20.29;53.73;98647.00;4987180;28;19929;-87
2023/11/02 12:47:16;;;;;;;;;;;;;;;20.22;54.44;98637.75;4971293;28;19925;-88
2023/11/02 12:49:41;;;;;;;;;;;;;;;20.22;54.47;98640.59;4974589;28;20475;-85
2023/11/02 12:52:24;;;;;;;;;;;;;;;20.21;54.50;98651.13;4972516;28;19926;-87
2023/11/02 12:55:02;;;;;;;;;;;;;;;20.24;54.43;98632.47;4992110;28;19914;-85
2023/11/02 12:57:37;;;;;;;;;;;;;;;20.13;55.13;98629.72;4971514;28;19921;-87
2023/11/02 13:00:26;;;;;;;;;;;;;;;19.99;55.11;98627.84;4999948;28;19914;-87
2023/11/02 13:02:51;;;;;;;;;;;;;;;20.11;54.53;98637.84;4991893;28;19972;-86